Time;durP1;ratioP1;P1;durP2;ratioP2;P2;SDS_P1;SDS_P2;PMS_P1;PMS_P2;Temp;Humidity;BMP_temperature;BMP_pressure;BME280_temperature;BME280_humidity;BME280_pressure;Samples;Min_cycle;Max_cycle;Signal;HPM_P1;HPM_P2
2024/03/08 00:01:54;;;;;;;17.23;11.03;;;1.80;99.90;;;;;;4962288;28;20224;-50
2024/03/08 00:04:21;;;;;;;17.57;11.30;;;1.70;99.90;;;;;;4960817;28;20687;-49
2024/03/08 00:06:50;;;;;;;14.90;9.67;;;1.70;99.90;;;;;;4961667;28;20206;-51
2024/03/08 00:09:17;;;;;;;15.87;10.83;;;1.70;99.90;;;;;;4960550;28;20218;-47
2024/03/08 00:14:25;;;;;;;23.67;11.03;;;1.60;99.90;;;;;;4934209;28;20193;-45
2024/03/08 00:16:52;;;;;;;18.73;10.83;;;1.60;99.90;;;;;;4955262;28;20217;-49
2024/03/08 00:19:19;;;;;;;19.23;10.67;;;1.60;99.90;;;;;;4959909;28;20186;-46
2024/03/08 00:21:46;;;;;;;14.57;10.10;;;1.60;99.90;;;;;;4961778;28;20214;-48
2024/03/08 00:24:14;;;;;;;18.33;10.90;;;1.50;99.90;;;;;;4961179;28;21001;-50
2024/03/08 00:26:41;;;;;;;18.70;11.10;;;1.60;99.90;;;;;;4957011;28;20664;-49
2024/03/08 00:29:08;;;;;;;16.90;10.63;;;1.50;99.90;;;;;;4962118;28;20246;-45
2024/03/08 00:31:35;;;;;;;16.43;11.20;;;1.50;99.90;;;;;;4928139;28;20332;-48
2024/03/08 00:34:02;;;;;;;16.87;10.77;;;1.50;99.90;;;;;;4963171;28;20245;-46
2024/03/08 00:36:30;;;;;;;18.07;10.83;;;1.50;99.90;;;;;;4960360;28;20272;-49
2024/03/08 00:38:56;;;;;;;19.00;10.60;;;1.50;99.90;;;;;;4963447;28;20677;-48
2024/03/08 00:41:26;;;;;;;18.20;9.77;;;1.50;99.90;;;;;;4953913;28;20918;-46
2024/03/08 00:43:53;;;;;;;17.73;10.03;;;1.40;99.90;;;;;;4963612;28;20676;-50
2024/03/08 00:46:20;;;;;;;15.37;9.83;;;1.40;99.90;;;;;;4932332;28;20220;-47
2024/03/08 00:48:47;;;;;;;16.20;10.20;;;1.40;99.90;;;;;;4955855;28;20785;-48
2024/03/08 00:51:15;;;;;;;17.67;10.27;;;1.40;99.90;;;;;;4961293;28;20222;-50
2024/03/08 00:53:42;;;;;;;19.23;11.03;;;1.30;99.90;;;;;;4956383;28;20313;-50
2024/03/08 00:56:10;;;;;;;17.10;10.37;;;1.30;99.90;;;;;;4958907;28;20568;-48
2024/03/08 00:58:38;;;;;;;17.03;10.13;;;1.30;99.90;;;;;;4957508;28;20273;-49
2024/03/08 01:01:05;;;;;;;15.57;10.33;;;1.30;99.90;;;;;;4959120;28;20281;-48
2024/03/08 01:03:34;;;;;;;19.17;10.13;;;1.20;99.90;;;;;;4940296;28;20850;-49
2024/03/08 01:06:01;;;;;;;17.97;10.90;;;1.20;99.90;;;;;;4966835;28;20215;-46
2024/03/08 01:08:28;;;;;;;16.13;10.50;;;1.20;99.90;;;;;;4957038;28;21383;-48
2024/03/08 01:10:55;;;;;;;14.67;9.77;;;1.20;99.90;;;;;;4966449;28;20222;-47
2024/03/08 01:13:22;;;;;;;18.03;11.00;;;1.10;99.90;;;;;;4955929;28;20833;-48
2024/03/08 01:15:50;;;;;;;15.27;9.67;;;1.10;99.90;;;;;;4966502;28;20297;-49
2024/03/08 01:18:17;;;;;;;15.50;9.70;;;1.10;99.90;;;;;;4930089;28;20245;-49
2024/03/08 01:20:44;;;;;;;17.67;10.67;;;1.10;99.90;;;;;;4965194;28;20222;-48
2024/03/08 01:23:11;;;;;;;16.13;10.07;;;1.00;99.90;;;;;;4964821;28;20205;-48
2024/03/08 01:25:37;;;;;;;13.87;9.47;;;1.00;99.90;;;;;;4964777;28;20265;-48
2024/03/08 01:28:05;;;;;;;19.53;10.27;;;1.00;99.90;;;;;;4960667;28;20217;-48
2024/03/08 01:30:34;;;;;;;19.07;10.63;;;1.00;99.90;;;;;;4963769;28;20221;-47
2024/03/08 01:33:02;;;;;;;17.47;11.00;;;1.00;99.90;;;;;;4938342;28;20206;-51
2024/03/08 01:35:29;;;;;;;14.60;9.43;;;1.00;99.90;;;;;;4955679;28;20795;-49
2024/03/08 01:37:56;;;;;;;17.63;10.80;;;1.00;99.90;;;;;;4966405;28;20668;-48
2024/03/08 01:40:23;;;;;;;17.17;10.70;;;0.90;99.90;;;;;;4962419;28;20893;-48
2024/03/08 01:42:50;;;;;;;18.13;9.83;;;0.90;99.90;;;;;;4960510;28;20202;-47
2024/03/08 01:45:17;;;;;;;18.47;10.90;;;0.90;99.90;;;;;;4963017;28;20217;-48
2024/03/08 01:47:44;;;;;;;17.13;10.63;;;0.80;99.90;;;;;;4965942;28;20279;-47
2024/03/08 01:50:12;;;;;;;18.13;10.50;;;0.80;99.90;;;;;;4929444;28;20240;-48
2024/03/08 01:52:39;;;;;;;15.77;10.03;;;0.80;99.90;;;;;;4964883;28;20194;-47
2024/03/08 01:55:07;;;;;;;16.50;10.60;;;0.80;99.90;;;;;;4965104;28;21507;-49
2024/03/08 01:57:35;;;;;;;16.63;10.53;;;0.70;99.90;;;;;;4963845;28;20186;-51
2024/03/08 02:00:04;;;;;;;17.50;9.90;;;0.70;99.90;;;;;;4960461;28;20206;-47
2024/03/08 02:02:34;;;;;;;17.83;11.20;;;0.70;99.90;;;;;;4961265;28;20194;-49
2024/03/08 02:05:01;;;;;;;22.20;10.10;;;0.70;99.90;;;;;;4938599;28;20221;-50
2024/03/08 02:07:29;;;;;;;18.83;10.90;;;0.70;99.90;;;;;;4962605;28;20421;-48
2024/03/08 02:09:56;;;;;;;17.93;9.97;;;0.70;99.90;;;;;;4965176;28;20225;-47
2024/03/08 02:12:23;;;;;;;17.73;9.93;;;0.70;99.90;;;;;;4961895;28;20355;-49
2024/03/08 02:14:50;;;;;;;19.10;11.40;;;0.70;99.90;;;;;;4960003;28;20206;-51
2024/03/08 02:17:17;;;;;;;17.07;10.77;;;0.70;99.90;;;;;;4962626;28;20243;-49
2024/03/08 02:19:44;;;;;;;16.73;10.33;;;0.60;99.90;;;;;;4965435;28;20217;-49
2024/03/08 02:22:12;;;;;;;18.97;10.83;;;0.60;99.90;;;;;;4935866;28;20234;-47
2024/03/08 02:24:39;;;;;;;18.07;10.80;;;0.60;99.90;;;;;;4964021;28;20186;-48
2024/03/08 02:27:06;;;;;;;18.57;10.70;;;0.60;99.90;;;;;;4964620;28;20625;-45
2024/03/08 02:29:35;;;;;;;15.80;10.47;;;0.60;99.90;;;;;;4957608;28;20407;-48
2024/03/08 02:32:02;;;;;;;17.87;10.93;;;0.60;99.90;;;;;;4965363;28;20236;-49
2024/03/08 02:34:31;;;;;;;21.10;11.77;;;0.60;99.90;;;;;;4961929;28;20973;-48
2024/03/08 02:36:58;;;;;;;21.70;11.03;;;0.60;99.90;;;;;;4938873;28;20655;-47
2024/03/08 02:39:27;;;;;;;15.57;10.87;;;0.60;99.90;;;;;;4961685;28;20243;-48
2024/03/08 02:41:54;;;;;;;17.57;10.90;;;0.60;99.90;;;;;;4965237;28;20245;-47
2024/03/08 02:44:21;;;;;;;16.77;10.77;;;0.60;99.90;;;;;;4961039;28;20232;-47
2024/03/08 02:46:48;;;;;;;17.97;10.27;;;0.50;99.90;;;;;;4960303;28;20220;-49
2024/03/08 02:49:16;;;;;;;20.40;11.63;;;0.50;99.90;;;;;;4960396;28;20221;-47
2024/03/08 02:51:42;;;;;;;19.00;11.30;;;0.50;99.90;;;;;;4964335;28;20241;-52
2024/03/08 02:54:10;;;;;;;21.70;11.27;;;0.50;99.90;;;;;;4935846;28;20268;-49
2024/03/08 02:56:38;;;;;;;19.43;10.97;;;0.50;99.90;;;;;;4962839;28;20221;-48
2024/03/08 02:59:05;;;;;;;17.17;10.07;;;0.40;99.90;;;;;;4962785;28;20213;-45
2024/03/08 03:01:32;;;;;;;16.43;10.80;;;0.40;99.90;;;;;;4956347;28;20991;-48
2024/03/08 03:03:59;;;;;;;16.03;10.63;;;0.40;99.90;;;;;;4963893;28;20216;-50
2024/03/08 03:06:26;;;;;;;18.80;10.30;;;0.40;99.90;;;;;;4960782;28;20214;-50
2024/03/08 03:08:52;;;;;;;19.03;11.13;;;0.40;99.90;;;;;;4935344;28;20275;-48
2024/03/08 03:11:20;;;;;;;21.77;11.57;;;0.40;99.90;;;;;;4960528;28;20921;-49
2024/03/08 03:13:48;;;;;;;21.40;11.47;;;0.40;99.90;;;;;;4964797;28;20233;-48
2024/03/08 03:16:19;;;;;;;15.00;9.97;;;0.40;99.90;;;;;;4958586;28;20209;-46
2024/03/08 03:18:46;;;;;;;20.90;10.97;;;0.40;99.90;;;;;;4955389;28;20569;-49
2024/03/08 03:21:13;;;;;;;16.07;10.27;;;0.40;99.90;;;;;;4961130;28;20225;-47
2024/03/08 03:23:41;;;;;;;15.73;10.60;;;0.40;99.90;;;;;;4962467;28;20209;-47
2024/03/08 03:26:10;;;;;;;18.03;11.50;;;0.40;99.90;;;;;;4934891;28;20215;-48
2024/03/08 03:28:39;;;;;;;18.20;11.07;;;0.40;99.90;;;;;;4963094;28;20268;-49
2024/03/08 03:31:07;;;;;;;17.77;10.23;;;0.40;99.90;;;;;;4962547;28;20227;-46
2024/03/08 03:33:36;;;;;;;19.33;10.80;;;0.30;99.90;;;;;;4956187;28;20192;-51
2024/03/08 03:36:04;;;;;;;17.43;10.10;;;0.30;99.90;;;;;;4962850;28;20222;-48
2024/03/08 03:38:31;;;;;;;16.97;10.93;;;0.30;99.90;;;;;;4961841;28;20224;-52
2024/03/08 03:41:04;;;;;;;17.00;10.30;;;0.30;99.90;;;;;;4934460;28;20228;-46
2024/03/08 03:43:31;;;;;;;15.93;10.30;;;0.30;99.90;;;;;;4962009;28;20193;-46
2024/03/08 03:45:58;;;;;;;16.77;10.67;;;0.20;99.90;;;;;;4963618;28;20212;-46
2024/03/08 03:48:26;;;;;;;17.30;10.83;;;0.30;99.90;;;;;;4955333;28;20196;-48
2024/03/08 03:50:52;;;;;;;20.23;11.60;;;0.30;99.90;;;;;;4960621;28;20712;-47
2024/03/08 03:53:23;;;;;;;17.27;10.97;;;0.30;99.90;;;;;;4960230;28;20199;-48
2024/03/08 03:55:50;;;;;;;17.97;9.77;;;0.20;99.90;;;;;;4936671;28;20212;-47
2024/03/08 03:58:22;;;;;;;20.10;10.90;;;0.20;99.90;;;;;;4956520;28;20197;-46
2024/03/08 04:00:49;;;;;;;19.17;10.97;;;0.20;99.90;;;;;;4963542;28;20781;-49
2024/03/08 04:03:16;;;;;;;18.57;9.73;;;0.20;99.90;;;;;;4955575;28;20738;-45
2024/03/08 04:05:45;;;;;;;18.07;11.10;;;0.20;99.90;;;;;;4962822;28;20205;-47
2024/03/08 04:08:11;;;;;;;21.27;10.83;;;0.20;99.90;;;;;;4960830;28;20288;-48
2024/03/08 04:10:38;;;;;;;18.53;10.33;;;0.20;99.90;;;;;;4935843;28;20314;-47
2024/03/08 04:13:05;;;;;;;17.47;9.97;;;0.20;99.90;;;;;;4962400;28;20664;-49
2024/03/08 04:15:32;;;;;;;20.60;11.33;;;0.10;99.90;;;;;;4959687;28;20204;-50
2024/03/08 04:18:00;;;;;;;18.87;10.37;;;0.10;99.90;;;;;;4961199;28;20560;-46
2024/03/08 04:20:27;;;;;;;20.50;11.10;;;0.10;99.90;;;;;;4955344;28;20931;-46
2024/03/08 04:22:55;;;;;;;14.90;10.27;;;0.20;99.90;;;;;;4963632;28;20201;-50
2024/03/08 04:25:22;;;;;;;18.43;10.63;;;0.10;99.90;;;;;;4926022;28;20244;-46
2024/03/08 04:27:49;;;;;;;16.43;9.90;;;0.10;99.90;;;;;;4960210;28;20201;-50
2024/03/08 04:30:16;;;;;;;21.17;10.30;;;0.10;99.90;;;;;;4959709;28;20790;-48
2024/03/08 04:32:43;;;;;;;20.27;11.43;;;0.10;99.90;;;;;;4962885;28;20240;-47
2024/03/08 04:35:12;;;;;;;21.73;11.33;;;0.00;99.90;;;;;;4959688;28;20218;-48
2024/03/08 04:37:39;;;;;;;20.13;10.07;;;0.10;99.90;;;;;;4966374;28;20202;-46
2024/03/08 04:40:08;;;;;;;17.60;9.83;;;0.00;99.90;;;;;;4965492;28;20240;-48
2024/03/08 04:42:38;;;;;;;15.60;9.67;;;0.00;99.90;;;;;;4938796;28;20241;-48
2024/03/08 04:45:05;;;;;;;18.43;9.93;;;0.10;99.90;;;;;;4965711;28;20874;-46
2024/03/08 04:47:32;;;;;;;18.37;11.00;;;0.00;99.90;;;;;;4965656;28;20524;-46
2024/03/08 04:49:59;;;;;;;19.27;10.77;;;0.00;99.90;;;;;;4964298;28;20221;-47
2024/03/08 04:52:27;;;;;;;15.97;9.70;;;0.00;99.90;;;;;;4958467;28;20240;-47
2024/03/08 04:54:54;;;;;;;19.57;11.07;;;0.00;99.90;;;;;;4966318;28;20205;-49
2024/03/08 04:57:22;;;;;;;19.10;11.57;;;-0.10;99.90;;;;;;4936220;28;20228;-47
2024/03/08 04:59:49;;;;;;;16.20;10.87;;;0.00;99.90;;;;;;4967010;28;20556;-50
2024/03/08 05:02:16;;;;;;;16.00;10.33;;;0.00;99.90;;;;;;4960581;28;20227;-48
2024/03/08 05:04:43;;;;;;;19.70;10.63;;;-0.10;99.90;;;;;;4967533;28;20652;-48
2024/03/08 05:07:10;;;;;;;19.23;10.83;;;-0.10;99.90;;;;;;4958887;28;20216;-49
2024/03/08 05:09:37;;;;;;;18.00;11.13;;;0.00;99.90;;;;;;4958944;28;20244;-47
2024/03/08 05:12:04;;;;;;;19.13;10.83;;;0.00;99.90;;;;;;4955242;28;20696;-48
2024/03/08 05:14:34;;;;;;;21.03;11.60;;;0.00;99.90;;;;;;4950096;28;20216;-49
2024/03/08 05:17:01;;;;;;;19.00;11.10;;;0.00;99.90;;;;;;4964020;28;20207;-45
2024/03/08 05:19:30;;;;;;;19.57;11.03;;;0.00;99.90;;;;;;4958410;28;20210;-47
2024/03/08 05:21:56;;;;;;;19.37;10.97;;;0.00;99.90;;;;;;4957708;28;20221;-46
2024/03/08 05:24:23;;;;;;;19.83;11.07;;;0.00;99.90;;;;;;4957053;28;20193;-48
2024/03/08 05:26:50;;;;;;;22.43;11.17;;;0.00;99.90;;;;;;4957844;28;20209;-47
2024/03/08 05:29:18;;;;;;;22.43;10.37;;;-0.10;99.90;;;;;;4936186;28;20220;-47
2024/03/08 05:31:49;;;;;;;22.73;11.87;;;-0.10;99.90;;;;;;4966237;28;20716;-47
2024/03/08 05:34:16;;;;;;;23.30;11.90;;;0.00;99.90;;;;;;4952503;28;20217;-48
2024/03/08 05:36:44;;;;;;;22.17;11.63;;;-0.10;99.90;;;;;;4967444;28;20208;-47
2024/03/08 05:39:11;;;;;;;22.70;13.07;;;-0.10;99.90;;;;;;4952949;28;20295;-46
2024/03/08 05:41:38;;;;;;;19.93;11.37;;;-0.10;99.90;;;;;;4958339;28;20726;-49
2024/03/08 05:44:06;;;;;;;22.53;11.67;;;-0.10;99.90;;;;;;4952058;28;20204;-47
2024/03/08 05:46:32;;;;;;;26.87;12.00;;;-0.10;99.90;;;;;;4954642;28;20288;-50
2024/03/08 05:49:05;;;;;;;22.93;11.93;;;-0.10;99.90;;;;;;4968220;28;20223;-46
2024/03/08 05:51:33;;;;;;;20.90;13.00;;;-0.10;99.90;;;;;;4964219;28;20209;-48
2024/03/08 05:54:01;;;;;;;23.30;12.97;;;-0.10;99.90;;;;;;4952027;28;20204;-48
2024/03/08 05:56:28;;;;;;;25.13;12.50;;;-0.20;99.90;;;;;;4949064;28;20212;-48
2024/03/08 05:58:56;;;;;;;22.00;11.67;;;-0.20;99.90;;;;;;4966154;28;20690;-48
2024/03/08 06:01:23;;;;;;;21.73;12.10;;;-0.20;99.90;;;;;;4935466;28;20348;-48
2024/03/08 06:03:50;;;;;;;21.53;12.10;;;-0.20;99.90;;;;;;4967783;28;20551;-47
2024/03/08 06:06:18;;;;;;;24.57;12.83;;;-0.10;99.90;;;;;;4956734;28;20201;-48
2024/03/08 06:08:47;;;;;;;26.10;13.10;;;-0.10;99.90;;;;;;4965293;28;20214;-47
2024/03/08 06:11:14;;;;;;;27.67;13.60;;;-0.10;99.90;;;;;;4937424;28;20288;-46
2024/03/08 06:13:41;;;;;;;26.03;12.80;;;-0.10;99.90;;;;;;4954490;28;20237;-47
2024/03/08 06:16:08;;;;;;;25.90;13.30;;;-0.10;99.90;;;;;;4938781;28;20294;-50
2024/03/08 06:18:36;;;;;;;24.50;13.03;;;-0.10;99.90;;;;;;4954219;28;20197;-49
2024/03/08 06:21:05;;;;;;;24.13;12.97;;;-0.10;99.90;;;;;;4956298;28;20216;-47
2024/03/08 06:23:33;;;;;;;23.00;12.10;;;-0.10;99.90;;;;;;4963813;28;20209;-49
2024/03/08 06:26:00;;;;;;;22.17;12.10;;;-0.10;99.90;;;;;;4952827;28;20200;-48
2024/03/08 06:28:27;;;;;;;28.57;13.47;;;-0.10;99.90;;;;;;4956968;28;20208;-48
2024/03/08 06:30:54;;;;;;;24.80;14.03;;;-0.10;99.90;;;;;;4937177;28;20217;-48
2024/03/08 06:33:21;;;;;;;24.13;13.03;;;-0.10;99.90;;;;;;4957931;28;20216;-48
2024/03/08 06:35:48;;;;;;;22.27;12.63;;;-0.10;99.90;;;;;;4956568;28;21044;-49
2024/03/08 06:38:16;;;;;;;23.43;13.23;;;-0.10;99.90;;;;;;4965991;28;20243;-49
2024/03/08 06:40:47;;;;;;;23.60;12.60;;;0.00;99.90;;;;;;4946515;28;20226;-48
2024/03/08 06:43:15;;;;;;;23.47;12.93;;;0.00;99.90;;;;;;4958599;28;20213;-49
2024/03/08 06:45:48;;;;;;;25.33;13.67;;;0.00;99.90;;;;;;4951651;28;21599;-48
2024/03/08 06:48:15;;;;;;;23.93;13.07;;;0.00;99.90;;;;;;4926960;28;20679;-51
2024/03/08 06:50:42;;;;;;;22.60;12.53;;;0.10;99.90;;;;;;4962150;28;20229;-48
2024/03/08 06:53:09;;;;;;;23.43;13.13;;;0.10;99.90;;;;;;4954448;28;20216;-52
2024/03/08 06:55:36;;;;;;;22.57;13.23;;;0.10;99.90;;;;;;4958173;28;20200;-50
2024/03/08 06:58:04;;;;;;;25.27;13.57;;;0.10;99.90;;;;;;4963715;28;20249;-49
2024/03/08 07:00:31;;;;;;;25.20;14.10;;;0.20;99.90;;;;;;4960061;28;20312;-48
2024/03/08 07:03:00;;;;;;;24.17;12.90;;;0.20;99.90;;;;;;4937066;28;20212;-52
2024/03/08 07:05:27;;;;;;;26.60;14.83;;;0.20;99.90;;;;;;4944490;28;20946;-52
2024/03/08 07:07:54;;;;;;;20.63;13.67;;;0.20;99.90;;;;;;4957671;28;20208;-49
2024/03/08 07:10:23;;;;;;;23.90;13.07;;;0.30;99.90;;;;;;4947779;28;20221;-49
2024/03/08 07:12:50;;;;;;;24.60;13.37;;;0.30;99.90;;;;;;4940522;28;20212;-47
2024/03/08 07:15:19;;;;;;;25.43;14.10;;;0.40;99.90;;;;;;4961342;28;20208;-53
2024/03/08 07:17:55;;;;;;;22.47;13.60;;;0.40;99.90;;;;;;5109386;27;20575;-51
2024/03/08 07:20:22;;;;;;;24.50;13.07;;;0.50;99.90;;;;;;5124405;27;20346;-47
2024/03/08 07:22:50;;;;;;;22.63;13.87;;;0.50;99.90;;;;;;5102996;27;20285;-50
2024/03/08 07:25:21;;;;;;;23.97;13.50;;;0.60;99.90;;;;;;5100097;27;20230;-47
2024/03/08 07:27:49;;;;;;;24.10;13.63;;;0.60;99.90;;;;;;5097596;27;20280;-51
2024/03/08 07:30:52;;;;;;;24.37;14.13;;;0.70;99.90;;;;;;5103786;28;20195;-52
2024/03/08 07:33:07;;;;;;;27.73;14.23;;;0.80;99.90;;;;;;5077582;27;20288;-49
2024/03/08 07:35:36;;;;;;;25.63;13.83;;;0.90;99.90;;;;;;5089249;27;20250;-51
2024/03/08 07:38:05;;;;;;;27.07;14.50;;;0.90;99.90;;;;;;5100965;28;20768;-49
2024/03/08 07:40:32;;;;;;;23.17;13.40;;;1.00;99.90;;;;;;5094659;27;20249;-50
2024/03/08 07:42:59;;;;;;;20.20;12.77;;;1.00;99.90;;;;;;5096475;27;20204;-48
2024/03/08 07:45:26;;;;;;;25.17;13.80;;;1.10;99.90;;;;;;5104968;28;20201;-52
2024/03/08 07:47:53;;;;;;;29.27;14.93;;;1.20;99.90;;;;;;5076193;27;20202;-53
2024/03/08 07:50:22;;;;;;;25.30;14.50;;;1.20;99.90;;;;;;5098387;27;20291;-50
2024/03/08 07:52:49;;;;;;;26.47;14.37;;;1.30;99.90;;;;;;5093313;27;20220;-50
2024/03/08 07:55:16;;;;;;;25.47;13.80;;;1.30;99.90;;;;;;5093026;27;20249;-49
2024/03/08 07:57:43;;;;;;;26.77;15.57;;;1.40;99.90;;;;;;5095804;27;20273;-49
2024/03/08 08:00:11;;;;;;;25.60;14.07;;;1.50;99.90;;;;;;5097278;27;20199;-47
2024/03/08 08:02:37;;;;;;;24.53;14.50;;;1.60;99.90;;;;;;5101698;28;20197;-49
2024/03/08 08:05:04;;;;;;;22.63;13.70;;;1.60;99.90;;;;;;5076108;27;20218;-50
2024/03/08 08:07:32;;;;;;;27.33;14.83;;;1.70;99.90;;;;;;5102028;27;20198;-50
2024/03/08 08:09:59;;;;;;;26.70;14.13;;;1.80;99.90;;;;;;5105258;27;20205;-50
2024/03/08 08:12:28;;;;;;;23.00;14.40;;;1.80;99.90;;;;;;5096533;27;20249;-48
2024/03/08 08:14:55;;;;;;;30.20;14.67;;;1.90;99.90;;;;;;5103252;27;20209;-53
2024/03/08 08:17:22;;;;;;;27.93;14.77;;;2.00;99.90;;;;;;5106761;28;20209;-51
2024/03/08 08:19:48;;;;;;;26.73;14.67;;;2.10;99.90;;;;;;5080793;27;20230;-49
2024/03/08 08:22:15;;;;;;;22.90;13.80;;;2.10;99.90;;;;;;5093608;27;20235;-52
2024/03/08 08:24:43;;;;;;;25.13;15.13;;;2.10;99.90;;;;;;5099979;28;20265;-49
2024/03/08 08:27:11;;;;;;;23.93;14.13;;;2.20;99.90;;;;;;5095666;27;20221;-50
2024/03/08 08:29:39;;;;;;;28.27;13.97;;;2.30;99.90;;;;;;5075883;27;20800;-49
2024/03/08 08:32:06;;;;;;;23.57;13.80;;;2.40;99.90;;;;;;5090582;28;20240;-49
2024/03/08 08:34:33;;;;;;;26.57;15.23;;;2.50;99.90;;;;;;5086031;28;20258;-52
2024/03/08 08:37:00;;;;;;;24.10;14.37;;;2.60;99.90;;;;;;5064212;27;20217;-52
2024/03/08 08:39:27;;;;;;;22.67;14.70;;;2.60;99.90;;;;;;5084191;28;20233;-48
2024/03/08 08:41:56;;;;;;;28.57;15.50;;;2.70;99.90;;;;;;5084097;27;20305;-49
2024/03/08 08:44:23;;;;;;;23.77;12.97;;;2.70;99.90;;;;;;5089497;27;20288;-50
2024/03/08 08:46:50;;;;;;;24.80;14.73;;;2.70;99.90;;;;;;5085115;28;20190;-50
2024/03/08 08:49:20;;;;;;;27.13;13.73;;;2.80;99.90;;;;;;5091836;28;20213;-49
2024/03/08 08:51:50;;;;;;;26.07;15.47;;;2.90;99.90;;;;;;5061687;27;20221;-51
2024/03/08 08:54:17;;;;;;;23.50;13.53;;;3.10;99.90;;;;;;5085959;28;20682;-50
2024/03/08 08:56:44;;;;;;;22.03;13.90;;;3.20;99.90;;;;;;5085256;28;20213;-49
2024/03/08 08:59:13;;;;;;;23.30;13.97;;;3.30;99.90;;;;;;5083800;27;20595;-49
2024/03/08 09:01:40;;;;;;;23.47;14.77;;;3.40;99.90;;;;;;5082709;27;20219;-49
2024/03/08 09:04:08;;;;;;;23.67;14.57;;;3.40;99.90;;;;;;5091275;28;20241;-49
2024/03/08 09:06:35;;;;;;;24.20;15.17;;;3.50;99.90;;;;;;5065429;28;20194;-47
2024/03/08 09:09:03;;;;;;;24.97;14.73;;;3.50;99.90;;;;;;5085677;27;20323;-48
2024/03/08 09:11:30;;;;;;;24.50;14.43;;;3.60;99.90;;;;;;5094786;28;20237;-50
2024/03/08 09:13:57;;;;;;;23.40;14.57;;;3.70;99.90;;;;;;5089059;27;20202;-48
2024/03/08 09:16:25;;;;;;;25.50;14.17;;;3.70;99.90;;;;;;5078384;27;20222;-53
2024/03/08 09:18:52;;;;;;;21.00;13.83;;;3.80;99.90;;;;;;5093530;28;20205;-51
2024/03/08 09:21:19;;;;;;;21.97;14.03;;;3.80;99.90;;;;;;5093746;28;20213;-50
2024/03/08 09:23:46;;;;;;;25.97;14.47;;;3.90;99.90;;;;;;5043065;27;20221;-48
2024/03/08 09:26:15;;;;;;;25.47;14.23;;;4.00;99.90;;;;;;5096615;28;20254;-48
2024/03/08 09:28:42;;;;;;;22.13;13.47;;;4.00;99.90;;;;;;5084318;28;20217;-54
2024/03/08 09:31:11;;;;;;;22.00;14.07;;;4.10;99.90;;;;;;5082049;28;20221;-46
2024/03/08 09:33:40;;;;;;;22.80;13.83;;;4.10;99.90;;;;;;5087071;28;20660;-53
2024/03/08 09:36:08;;;;;;;24.37;14.67;;;4.10;99.90;;;;;;5086406;28;20198;-50
2024/03/08 09:38:35;;;;;;;24.83;14.40;;;4.20;99.90;;;;;;5060127;27;20567;-54
2024/03/08 09:41:03;;;;;;;24.30;14.20;;;4.20;99.90;;;;;;5083727;28;20217;-45
2024/03/08 09:43:32;;;;;;;23.03;13.97;;;4.30;99.90;;;;;;5085538;28;20193;-54
2024/03/08 09:45:59;;;;;;;25.53;14.30;;;4.40;99.90;;;;;;5087904;27;20901;-48
2024/03/08 09:48:27;;;;;;;19.63;12.87;;;4.50;99.90;;;;;;5085845;28;20217;-54
2024/03/08 09:50:56;;;;;;;22.87;13.97;;;4.60;99.90;;;;;;5086155;28;20251;-47
2024/03/08 09:53:23;;;;;;;26.20;14.77;;;4.70;99.90;;;;;;5068813;28;20229;-45
2024/03/08 09:55:51;;;;;;;21.77;14.23;;;4.90;99.90;;;;;;5078436;27;20266;-50
2024/03/08 09:58:51;;;;;;;22.40;14.30;;;4.90;99.90;;;;;;5093518;28;20209;-46
2024/03/08 10:01:18;;;;;;;22.83;14.33;;;4.90;99.90;;;;;;5088951;28;20225;-48
2024/03/08 10:03:48;;;;;;;22.53;13.93;;;5.10;99.90;;;;;;5080794;27;20217;-48
2024/03/08 10:06:16;;;;;;;22.90;13.70;;;5.20;99.90;;;;;;5091117;28;20270;-46
2024/03/08 10:08:43;;;;;;;22.07;14.00;;;5.30;99.90;;;;;;5060313;28;20205;-44
2024/03/08 10:11:11;;;;;;;20.33;13.20;;;5.50;99.90;;;;;;5090942;27;20262;-52
2024/03/08 10:13:40;;;;;;;19.73;13.93;;;5.60;99.90;;;;;;5090097;28;20216;-45
2024/03/08 10:16:07;;;;;;;25.13;13.73;;;5.70;99.90;;;;;;5085589;27;20290;-45
2024/03/08 10:18:34;;;;;;;20.33;13.87;;;5.80;99.90;;;;;;5077200;27;20232;-48
2024/03/08 10:21:05;;;;;;;19.03;12.63;;;5.80;99.90;;;;;;5097741;28;20699;-44
2024/03/08 10:23:34;;;;;;;23.43;13.97;;;5.90;99.90;;;;;;5093709;28;20209;-49
2024/03/08 10:26:15;;;;;;;21.43;13.73;;;6.00;99.90;;;;;;5071220;28;20205;-44
2024/03/08 10:28:43;;;;;;;21.37;14.07;;;6.00;99.90;;;;;;5086013;28;20281;-46
2024/03/08 10:31:10;;;;;;;20.57;13.43;;;6.10;99.90;;;;;;5085224;27;20241;-51
2024/03/08 10:33:39;;;;;;;18.97;12.67;;;6.10;99.90;;;;;;5082150;27;20951;-45
2024/03/08 10:36:09;;;;;;;22.73;13.07;;;6.20;99.90;;;;;;5087591;28;20218;-49
2024/03/08 10:38:40;;;;;;;21.83;13.83;;;6.20;99.90;;;;;;5084310;28;20983;-47
2024/03/08 10:41:08;;;;;;;16.73;12.30;;;6.30;99.90;;;;;;5067358;28;20295;-49
2024/03/08 10:43:50;;;;;;;18.40;11.83;;;6.40;99.90;;;;;;5085464;27;20192;-48
2024/03/08 10:46:30;;;;;;;18.53;12.77;;;6.50;99.90;;;;;;5086472;28;20616;-54
2024/03/08 10:49:02;;;;;;;20.20;12.70;;;6.50;99.90;;;;;;5085091;27;20280;-47
2024/03/08 10:51:31;;;;;;;22.07;12.60;;;6.50;99.90;;;;;;5081099;27;20210;-48
2024/03/08 10:54:03;;;;;;;19.77;12.53;;;6.50;99.90;;;;;;5088833;28;20277;-49
2024/03/08 10:56:30;;;;;;;18.37;12.80;;;6.60;99.90;;;;;;5061562;28;20285;-49
2024/03/08 10:58:57;;;;;;;19.60;12.40;;;6.70;99.90;;;;;;5086474;28;20245;-45
2024/03/08 11:01:25;;;;;;;17.23;11.73;;;6.70;99.90;;;;;;5081835;28;20685;-53
2024/03/08 11:03:56;;;;;;;18.90;12.40;;;6.70;99.90;;;;;;5091126;27;20201;-45
2024/03/08 11:06:31;;;;;;;20.03;12.03;;;6.80;99.90;;;;;;5082510;28;20272;-53
2024/03/08 11:09:00;;;;;;;17.70;12.50;;;6.80;99.90;;;;;;5085906;28;20181;-47
2024/03/08 11:11:31;;;;;;;18.07;12.00;;;6.90;99.90;;;;;;5066094;28;20217;-51
2024/03/08 11:13:58;;;;;;;18.80;11.67;;;7.00;99.90;;;;;;5092005;28;20280;-48
2024/03/08 11:16:40;;;;;;;20.27;12.17;;;7.10;99.90;;;;;;5089533;28;20194;-54
2024/03/08 11:19:23;;;;;;;18.47;12.27;;;7.20;99.90;;;;;;5083889;28;20213;-52
2024/03/08 11:21:58;;;;;;;17.80;11.70;;;7.30;99.90;;;;;;5085600;28;20747;-45
2024/03/08 11:24:27;;;;;;;16.43;11.73;;;7.20;99.90;;;;;;5090064;28;20265;-51
2024/03/08 11:26:59;;;;;;;15.10;10.97;;;7.30;99.90;;;;;;5093846;28;20392;-49
2024/03/08 11:29:40;;;;;;;23.83;12.77;;;7.40;99.90;;;;;;5060450;28;20210;-52
2024/03/08 11:32:11;;;;;;;16.57;11.17;;;7.50;99.90;;;;;;5087643;28;20304;-45
2024/03/08 11:34:40;;;;;;;22.00;12.37;;;7.50;99.90;;;;;;5081325;28;20221;-47
2024/03/08 11:37:12;;;;;;;18.27;11.47;;;7.50;99.90;;;;;;5086035;28;20266;-46
2024/03/08 11:39:41;;;;;;;20.43;13.20;;;7.50;99.90;;;;;;5084008;28;20194;-45
2024/03/08 11:42:10;;;;;;;20.07;11.93;;;7.50;99.90;;;;;;5091444;28;20699;-49
2024/03/08 11:44:37;;;;;;;19.07;11.80;;;7.50;99.90;;;;;;5065153;28;20208;-47
2024/03/08 11:47:09;;;;;;;19.13;12.33;;;7.50;99.90;;;;;;5086906;28;20219;-45
2024/03/08 11:49:36;;;;;;;17.87;11.40;;;7.60;99.90;;;;;;5078168;28;20211;-47
2024/03/08 11:52:03;;;;;;;14.63;10.73;;;7.70;99.90;;;;;;5085993;28;20250;-53
2024/03/08 11:54:30;;;;;;;13.67;9.83;;;7.80;99.90;;;;;;5076809;28;20269;-48
2024/03/08 11:57:00;;;;;;;17.60;10.90;;;7.90;99.90;;;;;;5084247;28;20208;-53
2024/03/08 11:59:28;;;;;;;15.37;9.70;;;7.90;99.90;;;;;;5059104;28;20225;-49
2024/03/08 12:02:01;;;;;;;17.87;11.83;;;8.00;99.90;;;;;;5082601;28;20315;-54
2024/03/08 12:04:28;;;;;;;16.63;10.63;;;8.00;99.90;;;;;;5091659;28;20210;-45
2024/03/08 12:06:55;;;;;;;18.87;10.63;;;8.00;99.90;;;;;;5075790;27;20642;-54
2024/03/08 12:09:22;;;;;;;13.47;8.87;;;8.00;99.90;;;;;;5084350;27;20225;-55
2024/03/08 12:11:50;;;;;;;15.83;9.87;;;8.10;99.90;;;;;;5095822;28;20214;-47
2024/03/08 12:14:19;;;;;;;16.93;10.00;;;8.10;99.90;;;;;;5062025;28;20306;-55
2024/03/08 12:16:46;;;;;;;17.23;10.43;;;8.20;99.90;;;;;;5090068;28;20198;-47
2024/03/08 12:19:13;;;;;;;13.93;10.57;;;8.20;99.90;;;;;;5095954;28;20691;-54
2024/03/08 12:21:48;;;;;;;16.50;10.07;;;8.20;99.90;;;;;;5080102;27;21017;-49
2024/03/08 12:24:19;;;;;;;18.77;11.57;;;8.30;99.90;;;;;;5092509;28;20203;-55
2024/03/08 12:26:48;;;;;;;17.90;11.87;;;8.30;99.90;;;;;;5091653;28;20189;-52
2024/03/08 12:29:22;;;;;;;16.53;10.90;;;8.30;99.90;;;;;;5080989;28;20680;-57
2024/03/08 12:31:52;;;;;;;15.10;9.53;;;8.30;99.90;;;;;;5086282;28;20699;-49
2024/03/08 12:34:19;;;;;;;16.30;11.37;;;8.40;99.90;;;;;;5093329;28;20198;-53
2024/03/08 12:36:48;;;;;;;16.73;11.07;;;8.40;99.90;;;;;;5088717;27;20209;-47
2024/03/08 12:39:17;;;;;;;16.67;11.37;;;8.50;99.90;;;;;;5089299;28;20245;-55
2024/03/08 12:41:46;;;;;;;17.20;11.30;;;8.50;99.90;;;;;;5089054;28;20214;-48
2024/03/08 12:44:13;;;;;;;16.23;11.77;;;8.50;99.90;;;;;;5090160;28;20747;-54